Time;durP1;ratioP1;P1;durP2;ratioP2;P2;SDS_P1;SDS_P2;PMS_P1;PMS_P2;Temp;Humidity;BMP_temperature;BMP_pressure;BME280_temperature;BME280_humidity;BME280_pressure;Samples;Min_cycle;Max_cycle;Signal;HPM_P1;HPM_P2
2022/12/03 00:02:25;;;;;;;;;;;;;;;24.99;42.30;93932.28;4906916;29;7173;-62
2022/12/03 00:04:58;;;;;;;;;;;;;;;24.98;42.22;93928.78;4938268;28;7053;-62
2022/12/03 00:07:53;;;;;;;;;;;;;;;24.99;41.94;93926.78;4996099;28;7464;-62
2022/12/03 00:10:33;;;;;;;;;;;;;;;24.99;42.60;93924.03;4929970;28;7027;-62
2022/12/03 00:13:00;;;;;;;;;;;;;;;24.99;42.58;93929.53;4950085;28;8492;-62
2022/12/03 00:16:02;;;;;;;;;;;;;;;24.99;41.82;93924.75;4934830;29;7255;-62
2022/12/03 00:18:48;;;;;;;;;;;;;;;24.99;42.20;93929.53;4954146;28;7278;-62
2022/12/03 00:21:15;;;;;;;;;;;;;;;24.99;42.14;93924.75;4944534;28;7043;-62
2022/12/03 00:23:42;;;;;;;;;;;;;;;25.00;42.51;93920.75;4931580;28;7044;-62
2022/12/03 00:26:09;;;;;;;;;;;;;;;24.98;41.90;93923.28;4928391;28;9381;-62
2022/12/03 00:28:35;;;;;;;;;;;;;;;24.99;42.37;93915.78;4938742;28;8737;-62
2022/12/03 00:31:01;;;;;;;;;;;;;;;24.99;41.95;93915.78;4933299;29;7041;-62
2022/12/03 00:33:30;;;;;;;;;;;;;;;25.01;42.25;93921.53;4947515;28;9312;-62
2022/12/03 00:35:56;;;;;;;;;;;;;;;24.99;42.06;93918.53;4951474;28;8998;-62
2022/12/03 00:38:22;;;;;;;;;;;;;;;25.00;42.69;93922.75;4933929;29;9291;-63
2022/12/03 00:40:55;;;;;;;;;;;;;;;25.00;41.92;93914.50;4928487;29;7185;-63
2022/12/03 00:43:21;;;;;;;;;;;;;;;25.00;42.48;93911.75;4934069;28;7300;-62
2022/12/03 00:45:49;;;;;;;;;;;;;;;24.99;42.27;93913.75;4937535;28;7905;-62
2022/12/03 00:48:15;;;;;;;;;;;;;;;25.00;42.53;93909.00;5000844;28;7027;-63
2022/12/03 00:50:43;;;;;;;;;;;;;;;25.01;42.66;93910.50;4980044;28;9357;-62
2022/12/03 00:53:35;;;;;;;;;;;;;;;25.01;42.22;93918.75;4984059;28;7046;-63
2022/12/03 00:56:21;;;;;;;;;;;;;;;25.00;41.90;93915.25;4931343;28;7858;-62
2022/12/03 00:58:56;;;;;;;;;;;;;;;24.99;42.38;93908.25;4943654;28;9804;-62
2022/12/03 01:01:22;;;;;;;;;;;;;;;24.99;41.99;93918.53;4952225;28;9161;-62
2022/12/03 01:03:48;;;;;;;;;;;;;;;25.00;42.72;93920.75;4940078;28;7700;-62
2022/12/03 01:06:14;;;;;;;;;;;;;;;25.00;42.19;93920.00;4943024;28;8781;-62
2022/12/03 01:08:40;;;;;;;;;;;;;;;24.99;42.80;93919.25;4934517;29;7288;-62
2022/12/03 01:11:36;;;;;;;;;;;;;;;25.00;42.33;93920.00;4940760;28;7202;-62
2022/12/03 01:14:04;;;;;;;;;;;;;;;24.98;42.32;93911.53;4940510;28;7877;-62
2022/12/03 01:16:50;;;;;;;;;;;;;;;24.99;42.48;93913.75;4934254;29;8233;-62
2022/12/03 01:19:51;;;;;;;;;;;;;;;25.01;42.61;93924.28;4945247;28;7410;-62
2022/12/03 01:22:17;;;;;;;;;;;;;;;25.01;42.71;93936.00;4871090;29;7484;-62
2022/12/03 01:24:43;;;;;;;;;;;;;;;24.98;42.11;93922.53;4877807;29;7362;-62
2022/12/03 01:27:18;;;;;;;;;;;;;;;25.00;41.79;93928.28;4871204;29;7284;-62
2022/12/03 01:30:08;;;;;;;;;;;;;;;25.00;42.63;93936.53;4876574;29;9609;-62
2022/12/03 01:32:34;;;;;;;;;;;;;;;25.00;41.71;93931.78;4874756;29;7264;-62
2022/12/03 01:35:03;;;;;;;;;;;;;;;25.00;42.76;93931.78;4918071;29;7879;-62
2022/12/03 01:37:39;;;;;;;;;;;;;;;25.01;42.23;93929.78;4915624;29;9502;-63
2022/12/03 01:40:19;;;;;;;;;;;;;;;25.01;42.50;93938.75;4927716;29;9275;-62
2022/12/03 01:43:23;;;;;;;;;;;;;;;25.01;41.98;93938.03;4916149;29;8494;-61
2022/12/03 01:45:51;;;;;;;;;;;;;;;25.00;42.45;93942.03;4840951;29;8482;-62
2022/12/03 01:48:17;;;;;;;;;;;;;;;25.01;42.20;93940.78;4832301;29;7225;-62
2022/12/03 01:50:44;;;;;;;;;;;;;;;25.01;42.15;93944.25;4834369;29;8940;-62
2022/12/03 01:53:26;;;;;;;;;;;;;;;25.00;42.62;93944.78;4832602;29;7328;-62
2022/12/03 01:55:54;;;;;;;;;;;;;;;25.01;42.03;93943.53;4852753;29;7297;-62
2022/12/03 01:58:32;;;;;;;;;;;;;;;25.00;42.02;93940.03;4864140;29;8945;-62
2022/12/03 02:01:25;;;;;;;;;;;;;;;25.01;42.67;93946.28;4877767;29;7836;-61
2022/12/03 02:03:50;;;;;;;;;;;;;;;25.00;42.45;93951.03;4874249;29;7334;-62
2022/12/03 02:06:31;;;;;;;;;;;;;;;25.01;42.85;93951.78;4861804;29;7175;-62
2022/12/03 02:09:18;;;;;;;;;;;;;;;25.00;42.80;93939.28;4868404;29;7044;-62
2022/12/03 02:11:49;;;;;;;;;;;;;;;25.00;42.06;93942.03;4877578;29;7030;-62
2022/12/03 02:14:36;;;;;;;;;;;;;;;24.96;42.34;93945.06;4860533;29;9722;-63
2022/12/03 02:17:03;;;;;;;;;;;;;;;25.00;42.53;93936.53;4877190;29;8697;-62
2022/12/03 02:20:06;;;;;;;;;;;;;;;25.01;42.33;93940.78;4909626;28;7260;-62
2022/12/03 02:22:42;;;;;;;;;;;;;;;25.00;42.21;93936.53;4916097;29;9065;-62
2022/12/03 02:25:24;;;;;;;;;;;;;;;24.99;42.77;93937.81;4909254;29;7511;-63
2022/12/03 02:28:08;;;;;;;;;;;;;;;25.00;42.05;93937.28;4917674;29;7165;-63
2022/12/03 02:30:35;;;;;;;;;;;;;;;25.00;41.97;93931.03;4908409;29;9227;-62
2022/12/03 02:33:19;;;;;;;;;;;;;;;25.01;41.79;93927.03;4914430;29;7238;-62
2022/12/03 02:35:46;;;;;;;;;;;;;;;24.99;42.47;93924.03;4900260;29;7251;-62
2022/12/03 02:38:31;;;;;;;;;;;;;;;25.01;42.30;93933.25;4926039;29;7678;-63
2022/12/03 02:44:11;;;;;;;;;;;;;;;25.00;42.45;93929.03;4920531;29;9077;-62
2022/12/03 02:46:37;;;;;;;;;;;;;;;25.00;41.87;93929.03;4919112;29;7152;-63
2022/12/03 02:49:05;;;;;;;;;;;;;;;25.01;41.86;93933.25;4921982;29;7452;-62
2022/12/03 02:51:43;;;;;;;;;;;;;;;25.00;42.19;93931.78;4917557;29;7198;-62
2022/12/03 02:54:30;;;;;;;;;;;;;;;25.01;42.45;93927.03;4912135;29;8732;-62
2022/12/03 02:57:01;;;;;;;;;;;;;;;25.00;42.44;93928.28;4912147;28;7414;-61
2022/12/03 02:59:28;;;;;;;;;;;;;;;25.00;42.73;93933.78;4984346;28;8242;-62
2022/12/03 03:02:19;;;;;;;;;;;;;;;25.00;42.67;93937.28;5000300;28;7053;-62
2022/12/03 03:05:24;;;;;;;;;;;;;;;25.00;42.15;93931.78;4981931;28;7775;-62
2022/12/03 03:08:12;;;;;;;;;;;;;;;25.00;41.79;93923.53;4955673;28;7293;-62
2022/12/03 03:11:24;;;;;;;;;;;;;;;25.01;42.57;93927.03;4971996;28;9385;-62
2022/12/03 03:14:02;;;;;;;;;;;;;;;25.01;42.54;93929.78;4962879;28;9534;-63
2022/12/03 03:16:40;;;;;;;;;;;;;;;25.01;42.10;93924.28;4962575;28;8425;-62
2022/12/03 03:19:15;;;;;;;;;;;;;;;25.00;42.18;93925.53;4949484;28;7058;-62
2022/12/03 03:21:54;;;;;;;;;;;;;;;25.01;42.55;93927.75;4962316;28;9439;-62
2022/12/03 03:24:24;;;;;;;;;;;;;;;25.01;42.52;93927.03;4959368;28;7044;-63
2022/12/03 03:27:06;;;;;;;;;;;;;;;24.99;42.18;93915.78;4959610;28;8691;-62
2022/12/03 03:29:34;;;;;;;;;;;;;;;25.01;42.36;93907.75;4955452;28;7078;-61
2022/12/03 03:32:02;;;;;;;;;;;;;;;25.01;42.43;93913.97;4937313;28;7356;-62
2022/12/03 03:34:37;;;;;;;;;;;;;;;25.01;41.98;93927.03;4959314;28;7119;-62
2022/12/03 03:37:14;;;;;;;;;;;;;;;25.01;42.12;93913.97;4954346;28;8869;-62
2022/12/03 03:39:40;;;;;;;;;;;;;;;25.02;42.07;93911.97;4957338;28;7301;-62
2022/12/03 03:42:40;;;;;;;;;;;;;;;25.02;42.00;93912.75;4974590;28;9187;-62
2022/12/03 03:45:07;;;;;;;;;;;;;;;25.03;41.57;93913.50;4936073;28;7274;-63
2022/12/03 03:47:33;;;;;;;;;;;;;;;25.02;42.20;93917.50;4947770;28;7063;-62
2022/12/03 03:50:02;;;;;;;;;;;;;;;25.02;42.29;93923.00;4931205;28;9008;-62
2022/12/03 03:52:40;;;;;;;;;;;;;;;25.01;41.74;93921.53;4926291;29;7050;-61
2022/12/03 03:55:25;;;;;;;;;;;;;;;25.02;42.50;93911.97;4936879;29;7013;-62
2022/12/03 03:58:00;;;;;;;;;;;;;;;25.01;42.74;93911.22;4954477;28;9165;-62
2022/12/03 04:00:43;;;;;;;;;;;;;;;25.00;42.44;93909.75;4946625;28;9686;-62
2022/12/03 04:03:18;;;;;;;;;;;;;;;25.01;41.78;93905.72;4929830;28;7064;-62
2022/12/03 04:05:49;;;;;;;;;;;;;;;25.00;42.22;93907.00;4938243;28;8767;-62
2022/12/03 04:08:26;;;;;;;;;;;;;;;25.00;42.21;93918.00;4940350;28;7192;-62
2022/12/03 04:13:58;;;;;;;;;;;;;;;25.01;42.28;93908.47;4952180;28;7049;-62
2022/12/03 04:16:42;;;;;;;;;;;;;;;25.01;42.25;93908.47;4945102;28;7214;-62
2022/12/03 04:19:18;;;;;;;;;;;;;;;24.99;42.55;93911.00;4932814;28;7054;-63
2022/12/03 04:35:41;;;;;;;;;;;;;;;25.00;42.45;93900.75;4995689;28;7293;-62
2022/12/03 04:36:54;;;;;;;;;;;;;;;25.00;41.76;93909.00;4990726;28;9538;-62
2022/12/03 04:39:21;;;;;;;;;;;;;;;25.00;42.28;93909.00;4988190;28;7354;-62
2022/12/03 04:42:03;;;;;;;;;;;;;;;25.00;41.69;93912.50;4994185;28;7912;-62
2022/12/03 04:44:40;;;;;;;;;;;;;;;25.00;41.63;93907.00;4983021;28;7248;-62
2022/12/03 04:47:14;;;;;;;;;;;;;;;25.00;42.27;93901.50;5005081;28;7300;-62
2022/12/03 04:49:47;;;;;;;;;;;;;;;25.02;41.46;93901.72;4980977;28;7237;-62
2022/12/03 04:52:17;;;;;;;;;;;;;;;25.01;41.98;93905.00;4984370;28;7250;-63
2022/12/03 04:55:00;;;;;;;;;;;;;;;25.01;41.82;93900.22;4978833;28;7032;-62
2022/12/03 04:57:35;;;;;;;;;;;;;;;25.02;41.79;93903.72;4988319;28;7172;-62
2022/12/03 05:00:02;;;;;;;;;;;;;;;24.99;42.11;93899.28;5004638;28;7226;-62
2022/12/03 05:02:29;;;;;;;;;;;;;;;25.02;41.67;93906.47;4991404;28;7366;-63
2022/12/03 05:04:56;;;;;;;;;;;;;;;25.00;41.91;93907.00;4993200;28;7404;-63
2022/12/03 05:07:29;;;;;;;;;;;;;;;25.02;41.74;93906.47;4990290;28;7032;-62
2022/12/03 05:10:16;;;;;;;;;;;;;;;25.01;42.34;93911.22;4979980;28;9451;-62
2022/12/03 05:12:53;;;;;;;;;;;;;;;25.00;42.30;93903.50;4975844;28;7060;-62
2022/12/03 05:15:29;;;;;;;;;;;;;;;25.01;41.73;93902.25;4986129;28;8739;-61
2022/12/03 05:17:56;;;;;;;;;;;;;;;25.00;42.29;93904.25;4994073;28;8967;-62
2022/12/03 05:20:40;;;;;;;;;;;;;;;25.01;41.83;93900.22;4987999;28;7053;-62
2022/12/03 05:23:10;;;;;;;;;;;;;;;25.01;41.29;93896.75;4987447;28;9410;-62
2022/12/03 05:25:45;;;;;;;;;;;;;;;25.00;42.28;93901.50;4993397;28;7956;-62
2022/12/03 05:28:14;;;;;;;;;;;;;;;25.03;41.43;93907.97;4980707;28;7232;-62
2022/12/03 05:30:45;;;;;;;;;;;;;;;25.00;42.15;93898.75;4977075;28;7097;-62
2022/12/03 05:33:13;;;;;;;;;;;;;;;24.98;41.75;93884.03;4990989;28;6989;-62
2022/12/03 05:35:40;;;;;;;;;;;;;;;24.98;41.31;93892.28;4990485;28;7062;-62
2022/12/03 05:38:12;;;;;;;;;;;;;;;25.02;41.63;93896.22;4993469;28;8276;-62
2022/12/03 05:42:52;;;;;;;;;;;;;;;25.04;41.78;93892.94;5000111;28;7255;-63
2022/12/03 05:43:54;;;;;;;;;;;;;;;25.03;41.84;93903.22;4944193;28;8989;-62
2022/12/03 05:46:20;;;;;;;;;;;;;;;25.02;41.22;93900.97;4932319;29;7038;-62
2022/12/03 05:48:48;;;;;;;;;;;;;;;25.00;41.99;93903.50;4929657;28;7557;-61
2022/12/03 05:51:33;;;;;;;;;;;;;;;25.02;41.63;93898.22;4934043;28;8321;-62
2022/12/03 05:54:26;;;;;;;;;;;;;;;25.02;41.76;93898.97;4936590;28;7521;-62
2022/12/03 05:56:56;;;;;;;;;;;;;;;25.03;42.17;93896.97;4945125;28;8293;-62
2022/12/03 05:59:30;;;;;;;;;;;;;;;25.02;41.86;93887.22;4953259;28;8981;-62
2022/12/03 06:02:06;;;;;;;;;;;;;;;25.04;42.12;93892.94;4928525;28;9436;-63
2022/12/03 06:04:35;;;;;;;;;;;;;;;25.03;41.32;93891.47;4934108;28;7173;-62
2022/12/03 06:07:07;;;;;;;;;;;;;;;25.00;41.59;93892.50;4938310;28;7259;-62
2022/12/03 06:09:33;;;;;;;;;;;;;;;25.02;41.41;93890.72;4929960;29;7082;-61
2022/12/03 06:11:59;;;;;;;;;;;;;;;25.02;41.56;93890.72;4932730;28;7018;-61
2022/12/03 06:14:29;;;;;;;;;;;;;;;25.02;42.09;93898.22;4940606;28;7265;-62
2022/12/03 06:16:59;;;;;;;;;;;;;;;25.03;41.52;93896.97;4930350;28;7348;-61
2022/12/03 06:19:27;;;;;;;;;;;;;;;25.04;41.86;93892.94;4944812;28;7166;-62
2022/12/03 06:21:55;;;;;;;;;;;;;;;25.02;41.23;93889.97;4988395;28;7105;-62
2022/12/03 06:24:21;;;;;;;;;;;;;;;25.03;41.54;93894.22;4976579;28;9770;-61
2022/12/03 06:26:47;;;;;;;;;;;;;;;25.00;42.26;93887.75;4977217;28;9380;-61
2022/12/03 06:29:16;;;;;;;;;;;;;;;25.02;42.08;93887.97;4981668;28;6985;-62
2022/12/03 06:31:41;;;;;;;;;;;;;;;25.00;41.55;93893.25;4981164;28;7270;-63
2022/12/03 06:34:19;;;;;;;;;;;;;;;25.02;41.94;93896.22;4988308;28;7845;-61
2022/12/03 06:36:49;;;;;;;;;;;;;;;25.00;42.76;93893.25;4977086;28;8241;-61
2022/12/03 06:39:16;;;;;;;;;;;;;;;25.01;42.55;93897.47;4983214;28;7766;-62
2022/12/03 06:41:44;;;;;;;;;;;;;;;25.05;41.99;93899.97;4990433;28;7085;-62
2022/12/03 06:44:14;;;;;;;;;;;;;;;25.10;42.32;93890.91;4985927;28;7931;-62
2022/12/03 06:46:42;;;;;;;;;;;;;;;25.13;41.98;93893.34;4979165;28;7145;-62
2022/12/03 06:49:11;;;;;;;;;;;;;;;25.17;41.78;93899.28;4997143;28;7060;-61
2022/12/03 06:51:46;;;;;;;;;;;;;;;25.17;42.38;93904.78;4993834;28;7280;-62
2022/12/03 06:54:12;;;;;;;;;;;;;;;25.17;42.41;93899.28;4978755;28;8630;-62
2022/12/03 06:56:56;;;;;;;;;;;;;;;25.17;42.10;93906.78;4996845;28;7245;-62
2022/12/03 06:59:22;;;;;;;;;;;;;;;25.17;42.50;93906.78;4983265;28;7173;-62
2022/12/03 07:01:53;;;;;;;;;;;;;;;25.17;42.47;93909.56;4981383;28;7108;-62
2022/12/03 07:04:24;;;;;;;;;;;;;;;25.16;42.10;93910.81;4984575;28;7302;-62
2022/12/03 07:07:16;;;;;;;;;;;;;;;25.17;42.72;93904.78;4990359;28;9468;-62
2022/12/03 07:09:52;;;;;;;;;;;;;;;25.19;42.63;93901.50;4910269;29;7355;-63
2022/12/03 07:12:48;;;;;;;;;;;;;;;25.18;42.00;93898.03;4902776;29;9607;-62
2022/12/03 07:15:14;;;;;;;;;;;;;;;25.16;42.64;93895.06;4825579;29;7053;-61
2022/12/03 07:17:41;;;;;;;;;;;;;;;25.11;42.12;93886.88;4840804;29;9185;-63
2022/12/03 07:20:09;;;;;;;;;;;;;;;25.12;42.37;93888.38;4832735;29;7070;-63
2022/12/03 07:22:36;;;;;;;;;;;;;;;25.10;41.66;93886.13;4843212;29;7351;-62
2022/12/03 07:25:04;;;;;;;;;;;;;;;25.09;41.33;93889.41;4842699;29;7166;-63
2022/12/03 07:27:44;;;;;;;;;;;;;;;25.13;41.99;93898.09;4843464;29;7052;-63
2022/12/03 07:30:19;;;;;;;;;;;;;;;25.17;41.72;93890.28;4847447;29;7464;-62
2022/12/03 07:32:54;;;;;;;;;;;;;;;25.22;41.41;93898.50;4837894;29;7173;-63
2022/12/03 07:35:20;;;;;;;;;;;;;;;25.24;40.52;93893.19;4842254;29;7446;-63
2022/12/03 07:37:46;;;;;;;;;;;;;;;25.23;41.24;93899.97;4845250;29;7263;-63
2022/12/03 07:40:12;;;;;;;;;;;;;;;25.19;41.00;93896.75;4844523;29;7508;-62
2022/12/03 07:42:42;;;;;;;;;;;;;;;25.17;41.08;93893.03;4838695;29;7127;-63
2022/12/03 07:45:13;;;;;;;;;;;;;;;25.14;41.08;93896.84;4837122;29;7289;-63
2022/12/03 07:47:41;;;;;;;;;;;;;;;25.12;41.34;93894.59;4908784;29;8958;-63
2022/12/03 07:50:10;;;;;;;;;;;;;;;25.10;41.58;93902.63;4917714;29;9264;-63
2022/12/03 07:52:36;;;;;;;;;;;;;;;25.08;41.83;93901.66;4977152;28;7298;-62
2022/12/03 07:55:15;;;;;;;;;;;;;;;25.06;41.51;93896.69;5006802;28;10137;-61
2022/12/03 07:58:19;;;;;;;;;;;;;;;25.06;41.27;93898.69;4990089;28;7018;-63
2022/12/03 08:01:14;;;;;;;;;;;;;;;25.05;41.95;93899.97;4951974;28;7028;-63
2022/12/03 08:03:41;;;;;;;;;;;;;;;25.04;42.00;93901.19;4859744;29;7252;-62
2022/12/03 08:06:16;;;;;;;;;;;;;;;25.04;42.39;93903.94;4858953;29;7460;-62
2022/12/03 08:08:55;;;;;;;;;;;;;;;25.03;42.59;93907.97;4844370;29;7143;-62
2022/12/03 08:11:24;;;;;;;;;;;;;;;25.03;42.09;93903.22;4839955;29;7407;-62
2022/12/03 08:14:03;;;;;;;;;;;;;;;25.04;42.26;93896.44;4859503;29;7599;-62
2022/12/03 08:16:38;;;;;;;;;;;;;;;25.04;42.67;93898.44;4854799;29;7120;-62
2022/12/03 08:19:09;;;;;;;;;;;;;;;25.04;42.57;93896.44;4840855;29;7181;-62
2022/12/03 08:21:39;;;;;;;;;;;;;;;25.07;42.24;93897.44;4845844;29;7108;-63
2022/12/03 08:24:19;;;;;;;;;;;;;;;25.08;42.01;93893.41;4838100;29;7501;-62
2022/12/03 08:27:18;;;;;;;;;;;;;;;25.07;41.86;93895.44;4856809;29;9091;-63
2022/12/03 08:29:46;;;;;;;;;;;;;;;25.05;42.61;93894.44;4803481;29;9235;-62
2022/12/03 08:32:12;;;;;;;;;;;;;;;25.05;42.50;93894.44;4802493;29;9003;-62
2022/12/03 08:34:43;;;;;;;;;;;;;;;25.04;42.56;93893.69;4828190;29;9396;-62
2022/12/03 08:37:18;;;;;;;;;;;;;;;25.05;42.83;93894.44;4858351;29;7125;-62
2022/12/03 08:39:47;;;;;;;;;;;;;;;25.06;42.25;93901.44;4867728;29;7450;-61
2022/12/03 08:42:40;;;;;;;;;;;;;;;25.05;42.63;93889.69;4918374;29;7387;-63
2022/12/03 08:45:27;;;;;;;;;;;;;;;25.06;43.37;93890.41;4924025;29;6982;-62
2022/12/03 08:47:59;;;;;;;;;;;;;;;25.08;43.14;93896.16;4930879;29;9042;-62
2022/12/03 08:50:37;;;;;;;;;;;;;;;25.07;43.23;93886.41;4933277;29;7721;-62
2022/12/03 08:53:40;;;;;;;;;;;;;;;25.08;42.58;93885.13;4915567;29;9215;-62
2022/12/03 08:56:20;;;;;;;;;;;;;;;25.07;42.35;93887.16;4929707;29;7260;-62
2022/12/03 08:59:18;;;;;;;;;;;;;;;25.08;42.27;93882.38;4944239;28;8895;-62
2022/12/03 09:01:58;;;;;;;;;;;;;;;25.08;42.96;93898.91;4897432;29;6916;-62
2022/12/03 09:04:26;;;;;;;;;;;;;;;25.08;41.74;93887.88;4878235;29;7290;-63
2022/12/03 09:07:02;;;;;;;;;;;;;;;25.09;42.32;93879.13;4921700;28;9011;-62
2022/12/03 09:09:38;;;;;;;;;;;;;;;25.08;42.41;93885.88;4951947;28;7497;-61
2022/12/03 09:12:24;;;;;;;;;;;;;;;25.08;42.28;93894.16;4953516;28;7092;-62
2022/12/03 09:15:01;;;;;;;;;;;;;;;25.06;42.32;93890.41;4933993;28;8728;-62
2022/12/03 09:18:03;;;;;;;;;;;;;;;25.08;42.69;93893.41;4950256;28;7373;-63
2022/12/03 09:20:40;;;;;;;;;;;;;;;25.09;42.61;93897.66;4880445;29;7237;-63
2022/12/03 09:23:25;;;;;;;;;;;;;;;25.06;42.70;93893.16;4895378;29;7081;-63
2022/12/03 09:26:08;;;;;;;;;;;;;;;25.07;42.26;93892.66;4878813;29;9007;-63
2022/12/03 09:28:48;;;;;;;;;;;;;;;25.06;42.57;93895.91;4889741;29;7635;-62
2022/12/03 09:31:15;;;;;;;;;;;;;;;25.07;42.70;93886.41;4894201;29;6873;-63
2022/12/03 09:33:51;;;;;;;;;;;;;;;25.06;42.51;93882.16;4894012;29;9115;-62
2022/12/03 09:36:46;;;;;;;;;;;;;;;25.07;42.83;93886.41;4895741;29;7238;-63
2022/12/03 09:39:12;;;;;;;;;;;;;;;25.05;42.23;93877.94;4873362;29;7035;-63
2022/12/03 09:41:38;;;;;;;;;;;;;;;25.06;42.60;93880.16;4876105;29;9117;-63
2022/12/03 09:44:06;;;;;;;;;;;;;;;25.04;42.49;93873.69;4855689;29;7591;-62
2022/12/03 09:46:35;;;;;;;;;;;;;;;25.06;42.57;93879.41;4877248;29;7058;-63
2022/12/03 09:49:02;;;;;;;;;;;;;;;25.06;41.86;93871.91;4876288;29;7414;-62
2022/12/03 09:51:33;;;;;;;;;;;;;;;25.06;41.27;93868.41;4878912;29;7286;-63
2022/12/03 09:54:02;;;;;;;;;;;;;;;25.07;41.21;93864.41;4872532;29;7132;-63
2022/12/03 09:56:38;;;;;;;;;;;;;;;25.08;40.95;93854.88;4922194;28;7114;-63
2022/12/03 09:59:14;;;;;;;;;;;;;;;25.07;41.53;93859.66;4947530;28;7446;-63
2022/12/03 10:01:41;;;;;;;;;;;;;;;25.06;41.68;93866.41;4944659;28;7238;-63
2022/12/03 10:04:11;;;;;;;;;;;;;;;25.05;41.94;93859.44;4940586;28;7059;-62
2022/12/03 10:06:39;;;;;;;;;;;;;;;25.05;41.27;93861.44;4939598;28;9066;-62
2022/12/03 10:09:10;;;;;;;;;;;;;;;25.02;41.57;93851.47;4924838;28;8618;-63
2022/12/03 10:11:38;;;;;;;;;;;;;;;25.03;41.88;93850.97;4948066;28;7168;-62
2022/12/03 10:14:10;;;;;;;;;;;;;;;25.03;41.80;93852.97;4939673;28;9145;-62
2022/12/03 10:16:45;;;;;;;;;;;;;;;25.04;41.50;93846.94;4977785;28;8685;-61
2022/12/03 10:19:25;;;;;;;;;;;;;;;25.05;41.77;93842.16;4993102;28;9859;-62
2022/12/03 10:22:06;;;;;;;;;;;;;;;25.05;42.21;93844.94;4987317;28;7058;-62
2022/12/03 10:24:38;;;;;;;;;;;;;;;25.06;42.04;93840.91;4982130;28;7286;-59
2022/12/03 10:27:23;;;;;;;;;;;;;;;25.07;41.67;93842.41;4970893;28;7298;-62
2022/12/03 10:29:55;;;;;;;;;;;;;;;25.08;42.08;93832.84;4967960;28;7290;-62
2022/12/03 10:32:46;;;;;;;;;;;;;;;25.07;41.34;93809.38;4957588;28;7168;-62
2022/12/03 10:35:19;;;;;;;;;;;;;;;25.06;42.02;93819.63;4963733;28;7080;-62
2022/12/03 10:38:16;;;;;;;;;;;;;;;25.07;42.07;93826.63;4954008;28;7113;-62
2022/12/03 10:40:47;;;;;;;;;;;;;;;25.07;41.86;93809.38;4946931;28;9373;-62
2022/12/03 10:43:18;;;;;;;;;;;;;;;25.07;41.59;93810.13;4966509;28;7398;-60
2022/12/03 10:46:02;;;;;;;;;;;;;;;25.08;41.88;93808.09;4969024;28;7207;-62
2022/12/03 10:48:31;;;;;;;;;;;;;;;25.08;41.91;93799.84;4950699;28;7331;-61
2022/12/03 10:51:28;;;;;;;;;;;;;;;25.07;42.43;93801.88;4965878;28;9339;-62
2022/12/03 10:53:54;;;;;;;;;;;;;;;25.06;41.90;93788.63;4891268;29;9083;-61
2022/12/03 10:56:33;;;;;;;;;;;;;;;25.07;41.57;93801.88;4905871;29;9096;-62
2022/12/03 10:58:59;;;;;;;;;;;;;;;25.08;41.41;93808.09;4908078;29;7238;-62
2022/12/03 11:01:25;;;;;;;;;;;;;;;25.08;41.56;93800.59;4903282;29;8367;-61
2022/12/03 11:04:04;;;;;;;;;;;;;;;25.08;41.49;93794.34;4902340;28;7054;-61
2022/12/03 11:06:33;;;;;;;;;;;;;;;25.06;41.13;93796.88;4920326;29;6984;-62
2022/12/03 11:09:03;;;;;;;;;;;;;;;25.08;41.77;93786.09;4938425;28;7283;-61
2022/12/03 11:11:38;;;;;;;;;;;;;;;25.08;41.68;93783.34;4938887;28;7206;-62
2022/12/03 11:14:11;;;;;;;;;;;;;;;25.09;41.77;93790.34;4929260;29;7433;-62
2022/12/03 11:16:40;;;;;;;;;;;;;;;25.08;41.61;93789.59;4926900;29;7190;-62
2022/12/03 11:19:12;;;;;;;;;;;;;;;25.09;41.59;93791.09;4930438;29;7108;-62
2022/12/03 11:22:04;;;;;;;;;;;;;;;25.11;42.05;93779.53;4939111;28;7184;-63
2022/12/03 11:24:34;;;;;;;;;;;;;;;25.10;41.61;93769.81;4925485;28;7259;-63
2022/12/03 11:27:01;;;;;;;;;;;;;;;25.09;41.40;93779.31;4941042;28;9136;-62
2022/12/03 11:29:57;;;;;;;;;;;;;;;25.09;41.25;93771.81;4945110;28;9225;-61
2022/12/03 11:32:38;;;;;;;;;;;;;;;25.11;41.40;93771.28;4945194;28;7189;-62
2022/12/03 11:35:11;;;;;;;;;;;;;;;25.10;41.59;93780.81;4965515;28;7336;-61
2022/12/03 11:37:41;;;;;;;;;;;;;;;25.09;41.77;93768.31;4966605;28;7271;-63
2022/12/03 11:40:18;;;;;;;;;;;;;;;25.08;41.25;93772.31;4963236;28;7029;-62
2022/12/03 11:42:48;;;;;;;;;;;;;;;25.10;41.29;93764.31;4945310;28;6947;-62
2022/12/03 11:45:17;;;;;;;;;;;;;;;25.10;41.92;93764.31;4968782;28;7133;-63
2022/12/03 11:47:57;;;;;;;;;;;;;;;25.11;41.47;93754.78;4960947;28;7271;-61
2022/12/03 11:50:27;;;;;;;;;;;;;;;25.09;41.33;93757.31;4964886;28;8736;-62
2022/12/03 11:52:53;;;;;;;;;;;;;;;25.08;41.41;93759.31;4963620;28;7108;-62
2022/12/03 11:55:47;;;;;;;;;;;;;;;25.06;41.95;93758.34;4961061;28;7604;-62
2022/12/03 11:58:29;;;;;;;;;;;;;;;25.06;41.68;93763.84;4950882;28;9409;-62
2022/12/03 12:01:00;;;;;;;;;;;;;;;25.06;42.18;93758.34;4968128;28;8151;-62
2022/12/03 12:03:29;;;;;;;;;;;;;;;25.09;42.45;93751.81;4953284;28;7450;-62
2022/12/03 12:06:04;;;;;;;;;;;;;;;25.10;41.92;93751.28;4968268;28;7337;-62
2022/12/03 12:08:31;;;;;;;;;;;;;;;25.09;41.52;93741.56;4972336;28;7370;-62
2022/12/03 12:11:00;;;;;;;;;;;;;;;25.09;42.06;93741.56;4984437;28;7325;-62
2022/12/03 12:13:31;;;;;;;;;;;;;;;25.10;41.54;93737.53;4990768;28;7043;-62
2022/12/03 12:16:31;;;;;;;;;;;;;;;25.13;41.90;93738.50;4992752;28;7355;-63
2022/12/03 12:19:32;;;;;;;;;;;;;;;25.12;41.60;93739.78;5006263;28;8994;-63
2022/12/03 12:22:24;;;;;;;;;;;;;;;25.13;42.41;93735.75;4990610;28;7049;-62
2022/12/03 12:24:56;;;;;;;;;;;;;;;25.12;42.39;93726.00;4980790;28;8245;-62
2022/12/03 12:27:43;;;;;;;;;;;;;;;25.11;42.35;93725.25;4994666;28;8516;-63
2022/12/03 12:30:29;;;;;;;;;;;;;;;25.12;42.23;93717.75;4987482;28;7272;-63
2022/12/03 12:33:24;;;;;;;;;;;;;;;25.12;42.30;93712.25;4991662;28;7288;-63
2022/12/03 12:36:08;;;;;;;;;;;;;;;25.12;41.54;93728.75;4984596;28;7230;-62
2022/12/03 12:38:40;;;;;;;;;;;;;;;25.13;42.21;93725.47;4986827;28;7043;-61
2022/12/03 12:41:12;;;;;;;;;;;;;;;25.14;42.12;93729.69;4979277;28;7211;-61
2022/12/03 12:43:41;;;;;;;;;;;;;;;25.12;41.83;93720.50;4983363;28;7066;-63
2022/12/03 12:46:14;;;;;;;;;;;;;;;25.13;41.39;93717.22;4979772;28;7226;-61
2022/12/03 12:48:43;;;;;;;;;;;;;;;25.13;41.96;93708.97;4983453;28;7417;-62
2022/12/03 12:51:17;;;;;;;;;;;;;;;25.13;42.47;93708.22;4987186;28;7285;-62
2022/12/03 12:53:44;;;;;;;;;;;;;;;25.13;42.01;93708.22;4985087;28;9489;-62
2022/12/03 12:56:29;;;;;;;;;;;;;;;25.15;41.83;93700.19;4982704;28;7081;-61
2022/12/03 12:59:23;;;;;;;;;;;;;;;25.15;42.49;93700.94;4980369;28;7444;-63
2022/12/03 13:02:00;;;;;;;;;;;;;;;25.14;41.53;93698.72;4932032;28;7122;-62
2022/12/03 13:04:30;;;;;;;;;;;;;;;25.14;42.17;93682.19;4930086;28;9311;-62
2022/12/03 13:07:27;;;;;;;;;;;;;;;25.14;42.15;93698.72;4931415;28;8485;-63
2022/12/03 13:09:57;;;;;;;;;;;;;;;25.13;41.89;93691.72;4856073;29;7517;-63
2022/12/03 13:12:35;;;;;;;;;;;;;;;25.13;42.06;93686.19;4861625;29;7273;-63
2022/12/03 13:15:37;;;;;;;;;;;;;;;25.14;42.19;93684.94;4878138;29;8688;-62
2022/12/03 13:18:27;;;;;;;;;;;;;;;25.14;42.05;93690.47;4862399;29;7015;-62
2022/12/03 13:20:54;;;;;;;;;;;;;;;25.15;42.03;93684.41;4869323;29;7259;-62
2022/12/03 13:23:40;;;;;;;;;;;;;;;25.15;42.17;93692.69;4875942;29;7044;-63
2022/12/03 13:26:23;;;;;;;;;;;;;;;25.14;41.96;93688.44;4877614;29;7285;-62
2022/12/03 13:28:51;;;;;;;;;;;;;;;25.15;42.46;93700.19;4860376;29;9202;-62
2022/12/03 13:31:35;;;;;;;;;;;;;;;25.13;42.62;93688.97;4861713;29;7290;-62
2022/12/03 13:34:20;;;;;;;;;;;;;;;25.14;42.59;93693.94;4881929;29;7113;-61
2022/12/03 13:37:05;;;;;;;;;;;;;;;25.14;41.87;93698.72;4861888;29;9386;-63
2022/12/03 13:39:51;;;;;;;;;;;;;;;25.14;42.29;93682.19;4909716;29;7353;-62
2022/12/03 13:42:45;;;;;;;;;;;;;;;25.14;41.73;93693.94;4916753;29;7984;-63
2022/12/03 13:45:14;;;;;;;;;;;;;;;25.16;42.32;93696.19;4892983;29;7044;-63
2022/12/03 13:47:44;;;;;;;;;;;;;;;25.15;42.28;93695.44;4928922;28;9398;-62
2022/12/03 13:50:40;;;;;;;;;;;;;;;25.15;41.83;93684.41;4934263;28;7408;-62
2022/12/03 13:53:14;;;;;;;;;;;;;;;25.14;42.70;93676.69;4925855;28;7303;-62
2022/12/03 13:55:46;;;;;;;;;;;;;;;25.12;42.40;93679.94;4936676;28;8736;-62
2022/12/03 13:58:22;;;;;;;;;;;;;;;25.14;42.09;93684.94;4942231;28;7359;-62
2022/12/03 14:00:55;;;;;;;;;;;;;;;25.13;42.03;93683.44;4950664;28;7296;-62
2022/12/03 14:03:23;;;;;;;;;;;;;;;25.15;42.61;93689.16;4933075;29;7164;-62